Main page
METAR-TAF:

METAR-TAF

Airports :

Toulouse–Blagnac Airport

Toulouse, France

latitude: 43-38N, longitude: 001-22E, elevation: 152 m

Current weather observation

The report was made 35 minutes ago, at 08:30 UTC
Wind 4 kt from the West, varying between Southwest and Northwest
Temperature 22°C
Humidity 60%
Pressure 1021 hPa
Visibility 10 km or more
no clouds below 1500 m and no cumulonimbus

METAR: LFBO 150830Z AUTO 28004KT 220V310 CAVOK 22/14 Q1021 NOSIG

Time: 11:05 (09:05 UTC)

Forecast

The report was made 4 hours and 5 minutes ago, at 05:00 UTC
Forecast valid from 15 at 06 UTC to 16 at 12 UTC
Wind 5 kt from the West/Northwest
Visibility 10 km or more
no clouds below 1500 m and no cumulonimbus
Becoming
from 15 at 19 UTC to 15 at 21 UTC
Wind 2 kt from variable directions

TAF: LFBO 150500Z 1506/1612 30005KT CAVOK BECMG 1519/1521 VRB02KT

Weather observations and forecasts of more than 4000 airports (METAR and TAF reports).

The available stations are represented by yellow and red dots on the map.

Hover mouse over dot to see the name of the station.

Then click to see weather observations and forecasts.

To change the map : click on the green buttons with a black cross to zoom in, on the green button with a dash to zoom out, or on the green arrows for adjacent maps.


METAR-TAF: